createdAt,value
2018-12-19T00:01:12.394Z,90.20
2018-12-19T00:03:40.641Z,86.40
2018-12-19T00:06:08.857Z,117.83
2018-12-19T00:08:37.825Z,97.37
2018-12-19T00:11:06.088Z,96.77
2018-12-19T00:13:34.255Z,129.10
2018-12-19T00:16:02.505Z,140.83
2018-12-19T00:18:30.702Z,119.73
2018-12-19T00:20:58.909Z,137.20
2018-12-19T00:23:27.083Z,106.90
2018-12-19T00:25:55.305Z,120.13
2018-12-19T00:28:23.476Z,130.23
2018-12-19T00:30:51.634Z,113.43
2018-12-19T00:33:19.887Z,110.23
2018-12-19T00:35:48.064Z,108.77
2018-12-19T00:38:16.231Z,101.30
2018-12-19T00:40:44.437Z,131.03
2018-12-19T00:43:12.608Z,88.30
2018-12-19T00:45:40.810Z,109.00
2018-12-19T00:48:08.981Z,107.60
2018-12-19T00:50:37.216Z,87.87
2018-12-19T00:53:05.395Z,103.03
2018-12-19T00:55:33.663Z,107.33
2018-12-19T00:58:01.829Z,86.43
2018-12-19T01:00:30.041Z,87.87
2018-12-19T01:02:58.247Z,108.23
2018-12-19T01:05:26.413Z,114.87
2018-12-19T01:07:54.617Z,90.10
2018-12-19T01:10:22.955Z,113.70
2018-12-19T01:12:51.181Z,103.40
2018-12-19T01:15:19.356Z,94.40
2018-12-19T01:17:47.527Z,91.00
2018-12-19T01:20:15.921Z,107.87
2018-12-19T01:22:44.141Z,99.07
2018-12-19T01:25:12.369Z,78.03
2018-12-19T01:27:40.587Z,75.13
2018-12-19T01:30:08.834Z,72.93
2018-12-19T01:32:37.007Z,86.70
2018-12-19T01:35:05.531Z,102.23
2018-12-19T01:37:35.463Z,91.10
2018-12-19T01:40:07.150Z,86.43
2018-12-19T01:42:35.403Z,104.10
2018-12-19T01:45:04.942Z,104.27
2018-12-19T01:47:33.121Z,96.43
2018-12-19T01:50:01.354Z,90.10
2018-12-19T01:52:29.540Z,110.60
2018-12-19T01:54:57.740Z,121.87
2018-12-19T01:57:25.907Z,111.90
2018-12-19T01:59:54.115Z,98.47
2018-12-19T02:02:22.276Z,109.23
2018-12-19T02:04:50.457Z,87.47
2018-12-19T02:07:18.646Z,88.87
2018-12-19T02:09:46.839Z,124.73
2018-12-19T02:12:15.031Z,135.97
2018-12-19T02:14:43.345Z,123.50
2018-12-19T02:17:11.772Z,87.23
2018-12-19T02:19:39.949Z,127.77
2018-12-19T02:22:08.216Z,104.20
2018-12-19T02:24:36.402Z,106.93
2018-12-19T02:27:04.595Z,108.23
2018-12-19T02:29:32.768Z,112.33
2018-12-19T02:32:02.946Z,100.37
2018-12-19T02:34:31.123Z,111.17
2018-12-19T02:36:59.289Z,91.50
2018-12-19T02:39:27.523Z,115.00
2018-12-19T02:41:55.698Z,107.20
2018-12-19T02:44:23.920Z,110.30
2018-12-19T02:46:52.083Z,105.27
2018-12-19T02:49:20.268Z,91.50
2018-12-19T02:51:48.467Z,86.70
2018-12-19T02:54:16.668Z,131.27
2018-12-19T02:56:44.846Z,111.97
2018-12-19T02:59:13.396Z,91.20
2018-12-19T03:01:41.571Z,99.70
2018-12-19T03:04:09.735Z,118.87
2018-12-19T03:06:37.942Z,95.47
2018-12-19T03:09:07.643Z,108.50
2018-12-19T03:11:35.853Z,95.90
2018-12-19T03:14:04.132Z,104.43
2018-12-19T03:16:32.413Z,95.83
2018-12-19T03:19:00.663Z,132.03
2018-12-19T03:21:28.900Z,120.77
2018-12-19T03:23:57.069Z,102.80
2018-12-19T03:26:25.269Z,127.87
2018-12-19T03:28:53.446Z,115.27
2018-12-19T03:31:21.640Z,91.30
2018-12-19T03:33:49.813Z,95.13
2018-12-19T03:36:18.315Z,96.63
2018-12-19T03:38:46.487Z,136.60
2018-12-19T03:41:14.665Z,139.73
2018-12-19T03:43:42.869Z,107.37
2018-12-19T03:46:11.076Z,148.50
2018-12-19T03:48:44.830Z,107.83
2018-12-19T03:51:13.071Z,109.67
2018-12-19T03:53:41.277Z,109.33
2018-12-19T03:56:09.505Z,141.77
2018-12-19T03:58:37.684Z,147.53
2018-12-19T04:01:05.935Z,142.40
2018-12-19T04:03:34.291Z,157.70
2018-12-19T04:06:02.504Z,115.17
2018-12-19T04:08:30.753Z,137.03
2018-12-19T04:10:58.928Z,134.53
2018-12-19T04:13:27.092Z,160.97
2018-12-19T04:15:55.310Z,146.43
2018-12-19T04:18:23.522Z,148.10
2018-12-19T04:20:51.682Z,117.50
2018-12-19T04:23:19.904Z,113.27
2018-12-19T04:25:48.070Z,127.00
2018-12-19T04:28:16.248Z,126.37
2018-12-19T04:30:45.058Z,125.10
2018-12-19T04:33:13.237Z,155.93
2018-12-19T04:35:41.434Z,122.10
2018-12-19T04:38:09.679Z,137.80
2018-12-19T04:40:37.852Z,126.63
2018-12-19T04:43:06.032Z,133.40
2018-12-19T04:45:34.230Z,115.80
2018-12-19T04:48:02.409Z,157.70
2018-12-19T04:50:30.616Z,135.23
2018-12-19T04:52:58.829Z,126.67
2018-12-19T04:55:27.007Z,129.93
2018-12-19T04:57:55.182Z,120.73
2018-12-19T05:00:23.423Z,104.60
2018-12-19T05:02:51.736Z,142.50
2018-12-19T05:05:19.905Z,132.73
2018-12-19T05:07:48.454Z,114.57
2018-12-19T05:10:16.622Z,113.67
2018-12-19T05:12:44.804Z,116.20
2018-12-19T05:15:12.991Z,121.87
2018-12-19T05:17:41.173Z,108.70
2018-12-19T05:20:12.175Z,122.73
2018-12-19T05:22:40.376Z,112.83
2018-12-19T05:25:14.411Z,115.03
2018-12-19T05:27:42.691Z,102.67
2018-12-19T05:30:11.509Z,117.87
2018-12-19T05:32:39.696Z,130.60
2018-12-19T05:35:08.052Z,122.70
2018-12-19T05:37:36.229Z,112.33
2018-12-19T05:40:06.863Z,108.17
2018-12-19T05:42:35.056Z,112.07
2018-12-19T05:45:04.279Z,113.30
2018-12-19T05:47:32.904Z,120.83
2018-12-19T05:50:01.356Z,108.07
2018-12-19T05:52:29.877Z,111.20
2018-12-19T05:54:58.082Z,108.33
2018-12-19T05:57:26.541Z,134.40
2018-12-19T05:59:54.721Z,124.87
2018-12-19T06:02:22.890Z,109.60
2018-12-19T06:04:51.101Z,118.57
2018-12-19T06:07:19.285Z,140.40
2018-12-19T06:09:47.473Z,113.50
2018-12-19T06:12:15.725Z,109.30
2018-12-19T06:14:43.917Z,126.40
2018-12-19T06:17:12.079Z,123.80
2018-12-19T06:19:40.306Z,100.03
2018-12-19T06:22:08.532Z,109.33
2018-12-19T06:24:36.709Z,121.90
2018-12-19T06:27:04.911Z,130.13
2018-12-19T06:29:33.076Z,105.47
2018-12-19T06:32:01.244Z,136.80
2018-12-19T06:34:29.461Z,107.53
2018-12-19T06:36:57.633Z,131.87
2018-12-19T06:39:25.822Z,110.53
2018-12-19T06:41:54.082Z,127.67
2018-12-19T06:44:22.249Z,99.47
2018-12-19T06:46:50.428Z,122.20
2018-12-19T06:49:18.630Z,100.70
2018-12-19T06:51:46.800Z,124.97
2018-12-19T06:54:14.968Z,113.90
2018-12-19T06:56:43.165Z,147.47
2018-12-19T06:59:11.338Z,137.30
2018-12-19T07:01:39.501Z,137.37
2018-12-19T07:04:08.208Z,120.97
2018-12-19T07:06:36.372Z,109.13
2018-12-19T07:09:07.127Z,135.53
2018-12-19T07:11:35.957Z,110.60
2018-12-19T07:14:04.276Z,107.03
2018-12-19T07:16:32.442Z,111.73
2018-12-19T07:19:00.651Z,136.40
2018-12-19T07:21:28.830Z,147.47
2018-12-19T07:23:57.525Z,156.03
2018-12-19T07:26:25.804Z,148.13
2018-12-19T07:28:53.981Z,136.33
2018-12-19T07:31:22.167Z,124.20
2018-12-19T07:33:50.365Z,168.70
2018-12-19T07:36:18.536Z,125.17
2018-12-19T07:38:46.752Z,128.80
2018-12-19T07:41:14.999Z,140.97
2018-12-19T07:43:43.200Z,153.93
2018-12-19T07:46:11.409Z,155.43
2018-12-19T07:48:39.906Z,121.27
2018-12-19T07:51:08.261Z,131.47
2018-12-19T07:53:36.458Z,122.43
2018-12-19T07:56:05.083Z,122.07
2018-12-19T07:58:33.309Z,111.20
2018-12-19T08:01:01.480Z,121.13
2018-12-19T08:03:29.657Z,133.50
2018-12-19T08:05:57.904Z,138.43
2018-12-19T08:08:26.075Z,109.70
2018-12-19T08:10:54.333Z,106.13
2018-12-19T08:13:22.584Z,101.83
2018-12-19T08:15:50.779Z,136.00
2018-12-19T08:18:18.976Z,139.20
2018-12-19T08:20:47.184Z,121.93
2018-12-19T08:23:15.345Z,117.67
2018-12-19T08:25:43.809Z,147.13
2018-12-19T08:28:12.119Z,102.37
2018-12-19T08:30:40.278Z,127.40
2018-12-19T08:33:08.499Z,126.77
2018-12-19T08:35:36.680Z,104.83
2018-12-19T08:38:04.887Z,122.00
2018-12-19T08:40:33.457Z,140.10
2018-12-19T08:43:01.685Z,119.00
2018-12-19T08:45:30.191Z,119.27
2018-12-19T08:47:58.449Z,127.77
2018-12-19T08:50:26.621Z,129.77
2018-12-19T08:52:54.837Z,126.23
2018-12-19T08:55:23.155Z,114.20
2018-12-19T08:57:51.324Z,114.40
2018-12-19T09:00:19.582Z,116.60
2018-12-19T09:02:47.793Z,120.17
2018-12-19T09:05:15.971Z,103.73
2018-12-19T09:07:44.146Z,123.90
2018-12-19T09:10:12.409Z,104.20
2018-12-19T09:12:40.895Z,128.83
2018-12-19T09:15:09.787Z,99.90
2018-12-19T09:17:37.989Z,117.17
2018-12-19T09:20:07.049Z,96.17
2018-12-19T09:22:35.263Z,132.93
2018-12-19T09:25:03.612Z,106.37
2018-12-19T09:27:31.788Z,106.13
2018-12-19T09:30:00.513Z,127.60
2018-12-19T09:32:28.711Z,94.13
2018-12-19T09:34:56.882Z,88.40
2018-12-19T09:37:25.056Z,111.17
2018-12-19T09:39:53.542Z,104.10
2018-12-19T09:42:21.721Z,107.40
2018-12-19T09:44:49.903Z,153.03
2018-12-19T09:47:18.152Z,97.27
2018-12-19T09:49:46.320Z,121.20
2018-12-19T09:52:14.499Z,95.00
2018-12-19T09:54:42.736Z,101.03
2018-12-19T09:57:10.902Z,107.97
2018-12-19T09:59:39.104Z,100.67
2018-12-19T10:02:07.681Z,87.13
2018-12-19T10:04:35.882Z,89.43
2018-12-19T10:07:04.159Z,81.23
2018-12-19T10:09:32.409Z,86.97
2018-12-19T10:12:00.580Z,95.00
2018-12-19T10:14:28.745Z,88.07
2018-12-19T10:16:56.945Z,85.77
2018-12-19T10:19:25.124Z,89.10
2018-12-19T10:21:53.298Z,78.63
2018-12-19T10:24:23.463Z,81.93
2018-12-19T10:26:51.617Z,78.53
2018-12-19T10:29:19.944Z,81.87
2018-12-19T10:31:48.153Z,81.73
2018-12-19T10:34:16.320Z,64.93
2018-12-19T10:36:44.483Z,61.90
2018-12-19T10:39:13.696Z,70.50
2018-12-19T10:41:41.868Z,68.93
2018-12-19T10:44:10.268Z,64.27
2018-12-19T10:46:38.524Z,64.03
2018-12-19T10:49:06.686Z,55.57
2018-12-19T10:51:34.848Z,65.17
2018-12-19T10:54:03.100Z,57.67
2018-12-19T10:56:31.277Z,56.50
2018-12-19T10:58:59.502Z,53.00
2018-12-19T11:01:27.709Z,59.23
2018-12-19T11:03:55.965Z,46.80
2018-12-19T11:06:24.131Z,55.93
2018-12-19T11:08:52.423Z,39.10
2018-12-19T11:11:20.756Z,54.63
2018-12-19T11:13:48.929Z,52.23
2018-12-19T11:16:17.112Z,53.07
2018-12-19T11:18:45.287Z,51.93
2018-12-19T11:21:13.535Z,50.83
2018-12-19T11:23:41.732Z,48.93
2018-12-19T11:26:09.896Z,47.20
2018-12-19T11:28:38.067Z,42.60
2018-12-19T11:31:06.327Z,54.20
2018-12-19T11:33:34.497Z,51.63
2018-12-19T11:36:02.659Z,45.33
2018-12-19T11:38:30.856Z,46.10
2018-12-19T11:40:59.963Z,44.27
2018-12-19T11:43:28.157Z,48.43
2018-12-19T11:45:56.422Z,42.10
2018-12-19T11:48:24.710Z,45.40
2018-12-19T11:50:52.875Z,43.03
2018-12-19T11:53:21.082Z,42.23
2018-12-19T11:55:49.315Z,39.90
2018-12-19T11:58:17.487Z,45.10
2018-12-19T12:00:45.676Z,45.30
2018-12-19T12:03:13.847Z,39.10
2018-12-19T12:05:42.007Z,38.97
2018-12-19T12:08:10.204Z,41.50
2018-12-19T12:10:38.440Z,41.37
2018-12-19T12:13:06.673Z,38.03
2018-12-19T12:15:34.878Z,43.73
2018-12-19T12:18:03.061Z,35.90
2018-12-19T12:20:31.275Z,42.50
2018-12-19T12:22:59.474Z,41.30
2018-12-19T12:25:27.648Z,39.00
2018-12-19T12:27:55.811Z,36.60
2018-12-19T12:30:24.012Z,41.23
2018-12-19T12:32:52.787Z,42.77
2018-12-19T12:35:20.960Z,36.20
2018-12-19T12:37:49.164Z,34.77
2018-12-19T12:40:17.342Z,32.10
2018-12-19T12:42:45.519Z,34.47
2018-12-19T12:45:13.813Z,37.30
2018-12-19T12:47:42.056Z,32.90
2018-12-19T12:50:10.349Z,35.20
2018-12-19T12:52:38.573Z,28.40
2018-12-19T12:55:06.940Z,33.60
2018-12-19T12:57:35.099Z,38.80
2018-12-19T13:00:03.656Z,35.77
2018-12-19T13:02:32.022Z,37.80
2018-12-19T13:05:00.830Z,34.53
2018-12-19T13:07:29.180Z,36.63
2018-12-19T13:09:57.356Z,49.20
2018-12-19T13:12:25.538Z,40.87
2018-12-19T13:14:53.709Z,31.07
2018-12-19T13:17:21.929Z,31.83
2018-12-19T13:19:50.096Z,31.10
2018-12-19T13:22:18.277Z,30.10
2018-12-19T13:24:46.517Z,34.30
2018-12-19T13:27:14.692Z,36.17
2018-12-19T13:29:43.099Z,32.10
2018-12-19T13:32:11.604Z,35.47
2018-12-19T13:34:39.784Z,35.37
2018-12-19T13:37:08.033Z,28.17
2018-12-19T13:39:36.226Z,30.53
2018-12-19T13:42:05.729Z,29.37
2018-12-19T13:44:34.204Z,34.03
2018-12-19T13:47:02.476Z,27.50
2018-12-19T13:49:30.658Z,32.90
2018-12-19T13:51:58.919Z,33.57
2018-12-19T13:54:27.091Z,26.13
2018-12-19T13:56:55.299Z,29.93
2018-12-19T13:59:23.498Z,23.60
2018-12-19T14:01:51.678Z,33.13
2018-12-19T14:04:20.112Z,30.00
2018-12-19T14:06:48.351Z,31.00
2018-12-19T14:09:16.709Z,27.00
2018-12-19T14:11:44.869Z,25.63
2018-12-19T14:14:13.073Z,28.53
2018-12-19T14:16:41.873Z,25.30
2018-12-19T14:19:10.228Z,25.93
2018-12-19T14:21:38.403Z,22.03
2018-12-19T14:24:06.605Z,26.00
2018-12-19T14:26:34.838Z,28.93
2018-12-19T14:29:03.187Z,24.10
2018-12-19T14:31:31.394Z,23.87
2018-12-19T14:33:59.566Z,25.70
2018-12-19T14:36:27.857Z,24.63
2018-12-19T14:42:05.595Z,23.40
2018-12-19T14:44:33.758Z,20.27
2018-12-19T14:47:01.935Z,21.10
2018-12-19T14:49:30.161Z,20.50
2018-12-19T14:51:58.363Z,24.03
2018-12-19T14:54:26.546Z,25.20
2018-12-19T14:56:54.793Z,21.67
2018-12-19T14:59:23.004Z,30.70
2018-12-19T15:01:51.204Z,23.17
2018-12-19T15:04:19.372Z,19.80
2018-12-19T15:06:47.568Z,24.73
2018-12-19T15:09:15.750Z,25.00
2018-12-19T15:11:44.001Z,23.07
2018-12-19T15:14:12.180Z,18.07
2018-12-19T15:16:40.348Z,21.63
2018-12-19T15:19:08.550Z,23.93
2018-12-19T15:21:36.764Z,24.20
2018-12-19T15:24:05.036Z,18.50
2018-12-19T15:26:33.362Z,20.77
2018-12-19T15:29:01.633Z,21.57
2018-12-19T15:31:29.940Z,26.53
2018-12-19T15:33:58.147Z,22.37
2018-12-19T15:36:26.644Z,20.10
2018-12-19T15:38:54.854Z,17.10
2018-12-19T15:41:23.044Z,21.10
2018-12-19T15:43:51.259Z,17.20
2018-12-19T15:46:19.420Z,20.30
2018-12-19T15:48:47.634Z,21.63
2018-12-19T15:51:15.834Z,19.40
2018-12-19T15:53:44.027Z,25.13
2018-12-19T15:56:12.265Z,20.30
2018-12-19T15:58:40.478Z,20.17
2018-12-19T16:01:08.654Z,22.00
2018-12-19T16:03:36.838Z,20.60
2018-12-19T16:06:05.035Z,25.90
2018-12-19T16:08:33.937Z,23.27
2018-12-19T16:11:02.135Z,20.37
2018-12-19T16:13:30.362Z,20.23
2018-12-19T16:15:58.868Z,23.70
2018-12-19T16:18:27.044Z,20.23
2018-12-19T16:20:55.236Z,21.97
2018-12-19T16:23:23.425Z,22.60
2018-12-19T16:25:51.622Z,22.17
2018-12-19T16:28:19.870Z,29.03
2018-12-19T16:30:48.057Z,22.90
2018-12-19T16:33:16.278Z,22.43
2018-12-19T16:35:44.491Z,20.70
2018-12-19T16:38:12.657Z,17.03
2018-12-19T16:40:40.851Z,22.67
2018-12-19T16:43:09.015Z,17.73
2018-12-19T16:45:37.207Z,23.87
2018-12-19T16:48:05.451Z,22.17
2018-12-19T16:50:33.686Z,20.90
2018-12-19T16:53:01.852Z,21.37
2018-12-19T16:55:30.024Z,24.23
2018-12-19T16:57:59.169Z,27.93
2018-12-19T17:00:27.338Z,24.23
2018-12-19T17:02:55.541Z,24.23
2018-12-19T17:05:23.715Z,23.50
2018-12-19T17:07:52.238Z,23.70
2018-12-19T17:10:20.425Z,20.90
2018-12-19T17:12:52.744Z,19.07
2018-12-19T17:15:18.996Z,15.73
2018-12-19T17:17:47.173Z,25.00
2018-12-19T17:20:16.132Z,21.97
2018-12-19T17:22:44.527Z,24.60
2018-12-19T17:25:12.781Z,23.10
2018-12-19T17:27:41.792Z,19.47
2018-12-19T17:30:09.995Z,31.70
2018-12-19T17:32:38.303Z,24.83
2018-12-19T17:35:06.624Z,24.27
2018-12-19T17:37:34.792Z,33.63
2018-12-19T17:40:03.466Z,27.03
2018-12-19T17:42:31.689Z,28.30
2018-12-19T17:44:59.854Z,20.20
2018-12-19T17:47:28.032Z,20.97
2018-12-19T17:49:56.242Z,34.03
2018-12-19T17:52:24.412Z,23.77
2018-12-19T17:54:52.613Z,23.70
2018-12-19T17:57:20.881Z,25.30
2018-12-19T17:59:49.072Z,21.73
2018-12-19T18:02:17.293Z,23.40
2018-12-19T18:04:45.543Z,38.17
2018-12-19T18:07:13.801Z,25.60
2018-12-19T18:09:42.014Z,18.80
2018-12-19T18:12:10.521Z,20.53
2018-12-19T18:14:38.698Z,23.37
2018-12-19T18:17:06.881Z,21.20
2018-12-19T18:19:36.376Z,24.53
2018-12-19T18:22:04.607Z,27.97
2018-12-19T18:24:32.784Z,25.33
2018-12-19T18:27:00.988Z,27.60
2018-12-19T18:29:29.163Z,31.60
2018-12-19T18:31:57.338Z,28.13
2018-12-19T18:34:25.571Z,31.90
2018-12-19T18:36:53.809Z,26.17
2018-12-19T18:39:26.162Z,30.67
2018-12-19T18:41:52.266Z,24.93
2018-12-19T18:44:20.443Z,20.03
2018-12-19T18:46:48.721Z,22.60
2018-12-19T18:49:16.907Z,18.67
2018-12-19T18:51:45.085Z,17.70
2018-12-19T18:54:13.289Z,22.80
2018-12-19T18:56:41.460Z,20.90
2018-12-19T18:59:09.732Z,21.00
2018-12-19T19:01:38.014Z,29.70
2018-12-19T19:04:06.245Z,25.77
2018-12-19T19:06:34.561Z,23.83
2018-12-19T19:09:02.886Z,20.87
2018-12-19T19:11:31.160Z,23.77
2018-12-19T19:13:59.366Z,27.20
2018-12-19T19:16:27.546Z,25.00
2018-12-19T19:18:55.750Z,31.70
2018-12-19T19:21:23.940Z,22.03
2018-12-19T19:23:52.116Z,26.90
2018-12-19T19:26:20.315Z,29.20
2018-12-19T19:28:48.548Z,22.17
2018-12-19T19:31:16.808Z,33.57
2018-12-19T19:33:45.027Z,24.93
2018-12-19T19:36:13.239Z,23.33
2018-12-19T19:38:41.441Z,28.27
2018-12-19T19:41:09.743Z,20.37
2018-12-19T19:43:37.952Z,30.80
2018-12-19T19:46:06.111Z,26.73
2018-12-19T19:48:34.295Z,31.57
2018-12-19T19:51:02.469Z,28.10
2018-12-19T19:53:30.698Z,41.03
2018-12-19T19:55:58.868Z,35.17
2018-12-19T19:58:27.026Z,26.10
2018-12-19T20:00:55.264Z,22.53
2018-12-19T20:03:23.502Z,34.10
2018-12-19T20:05:52.059Z,26.00
2018-12-19T20:08:20.270Z,29.90
2018-12-19T20:10:48.635Z,30.47
2018-12-19T20:13:16.824Z,24.90
2018-12-19T20:15:45.028Z,23.40
2018-12-19T20:18:13.655Z,25.73
2018-12-19T20:20:42.026Z,25.13
2018-12-19T20:23:10.205Z,39.90
2018-12-19T20:25:39.004Z,31.37
2018-12-19T20:28:07.227Z,23.13
2018-12-19T20:30:35.461Z,30.07
2018-12-19T20:33:03.694Z,21.37
2018-12-19T20:35:32.221Z,31.83
2018-12-19T20:38:00.389Z,27.83
2018-12-19T20:40:28.607Z,28.13
2018-12-19T20:42:57.005Z,25.33
2018-12-19T20:45:25.735Z,27.23
2018-12-19T20:47:53.950Z,28.20
2018-12-19T20:50:22.132Z,23.20
2018-12-19T20:52:50.325Z,23.73
2018-12-19T20:55:20.027Z,26.53
2018-12-19T20:57:48.344Z,26.47
2018-12-19T21:00:16.613Z,29.30
2018-12-19T21:02:44.798Z,24.50
2018-12-19T21:05:13.101Z,24.30
2018-12-19T21:07:41.273Z,31.77
2018-12-19T21:10:09.480Z,35.80
2018-12-19T21:12:37.679Z,30.20
2018-12-19T21:15:08.030Z,25.77
2018-12-19T21:17:41.893Z,33.20
2018-12-19T21:20:10.170Z,38.93
2018-12-19T21:22:38.380Z,41.40
2018-12-19T21:25:06.645Z,26.93
2018-12-19T21:27:34.822Z,29.37
2018-12-19T21:30:03.181Z,28.37
2018-12-19T21:32:31.355Z,24.60
2018-12-19T21:34:59.591Z,24.23
2018-12-19T21:37:27.769Z,25.27
2018-12-19T21:39:55.967Z,26.97
2018-12-19T21:42:24.217Z,31.23
2018-12-19T21:44:52.558Z,25.97
2018-12-19T21:47:20.871Z,29.20
2018-12-19T21:49:49.774Z,27.60
2018-12-19T21:52:17.962Z,33.17
2018-12-19T21:54:46.137Z,25.30
2018-12-19T21:57:14.344Z,31.07
2018-12-19T21:59:42.557Z,34.80
2018-12-19T22:02:10.783Z,29.87
2018-12-19T22:04:38.956Z,33.17
2018-12-19T22:07:07.172Z,24.60
2018-12-19T22:09:35.394Z,26.13
2018-12-19T22:12:03.574Z,30.03
2018-12-19T22:14:31.861Z,25.63
2018-12-19T22:17:05.810Z,24.37
2018-12-19T22:19:34.067Z,22.10
2018-12-19T22:22:02.399Z,25.47
2018-12-19T22:24:30.733Z,27.77
2018-12-19T22:26:58.917Z,21.33
2018-12-19T22:29:27.121Z,21.40
2018-12-19T22:31:55.306Z,31.20
2018-12-19T22:34:23.603Z,21.53
2018-12-19T22:36:51.800Z,25.50
2018-12-19T22:39:20.078Z,24.73
2018-12-19T22:41:48.393Z,21.80
2018-12-19T22:44:16.596Z,26.37
2018-12-19T22:46:44.833Z,31.73
2018-12-19T22:49:13.294Z,25.07
2018-12-19T22:51:41.589Z,31.13
2018-12-19T22:54:09.931Z,29.07
2018-12-19T22:56:38.193Z,24.10
2018-12-19T22:59:06.394Z,26.27
2018-12-19T23:01:40.583Z,35.53
2018-12-19T23:04:09.022Z,35.80
2018-12-19T23:06:37.328Z,30.37
2018-12-19T23:09:06.649Z,32.53
2018-12-19T23:11:34.909Z,30.47
2018-12-19T23:14:03.207Z,30.20
2018-12-19T23:16:31.605Z,28.03
2018-12-19T23:18:59.810Z,26.10
2018-12-19T23:21:28.112Z,27.77
2018-12-19T23:23:56.277Z,24.67
2018-12-19T23:26:24.647Z,24.63
2018-12-19T23:28:54.788Z,22.03
2018-12-19T23:31:22.994Z,24.73
2018-12-19T23:33:51.963Z,28.70
2018-12-19T23:36:20.191Z,29.97
2018-12-19T23:38:48.402Z,26.60
2018-12-19T23:41:16.675Z,25.00
2018-12-19T23:43:45.087Z,26.27
2018-12-19T23:52:07.745Z,28.23
2018-12-19T23:54:35.963Z,21.90
2018-12-19T23:57:04.432Z,25.63
2018-12-19T23:59:32.873Z,25.97
